Flight Track Log - Related Links

Times and Time Zones

All times are in EDT time to prevent confusion due to time zone crossing. See the UAL3849 flight status page for this flight to view local times or setup timezone preferences in your user account.

Time Position Orientation Groundspeed Altitude Reporting Facility
EDT Latitude Longitude Course Direction KTS MPH feet Rate Location/Type
Wed 05:32:56 PM 41.4131 -81.8400 166° South 163 188 1,700  Level Cleveland Center
Wed 05:33:57 PM 41.4181 -81.7683 85° East 224 258 3,800 2,202 Climbing Cleveland Center
Wed 05:34:45 PM 41.4208 -81.6992 87° East 238 274 5,700 2,611 Climbing Cleveland Center
Wed 05:35:45 PM 41.3925 -81.6211 116° Southeast 238 274 8,500 2,250 Climbing Cleveland Center
Wed 05:36:45 PM 41.3431 -81.5400 129° Southeast 252 290 10,200 1,300 Climbing Cleveland Center
Wed 05:37:00 PM 41.1386 -81.2926 127° Southeast  Level FlightAware Approximate
Wed 05:37:45 PM 41.2772 -81.4506 134° Southeast 294 338 11,100  Level Cleveland Center
Wed 05:38:00 PM 41.0812 -81.1937 166° South  Level FlightAware Approximate
Wed 05:38:45 PM 41.2153 -81.3617 133° Southeast 338 389 12,500  Level Cleveland Center
Wed 05:39:45 PM 41.1492 -81.2642 132° Southeast 357 411 14,500 1,950 Climbing Cleveland Center
Wed 05:40:45 PM 41.0767 -81.1808 139° Southeast 352 405 16,400 1,550 Climbing Cleveland Center
Wed 05:41:45 PM 40.9914 -81.1058 146° Southeast 359 413 17,600 1,100 Climbing Cleveland Center
Wed 05:42:45 PM 40.8939 -81.0144 145° Southeast 375 432 18,600 1,200 Climbing Cleveland Center
Wed 05:43:45 PM 40.8025 -80.9342 146° Southeast 389 448 20,000 1,500 Climbing Cleveland Center
Wed 05:44:45 PM 40.7069 -80.8542 148° Southeast 399 459 21,600 1,550 Climbing Cleveland Center
Wed 05:45:45 PM 40.6069 -80.8264 168° South 399 459 23,100 1,300 Climbing Cleveland Center
Wed 05:46:45 PM 40.4964 -80.7933 167° South 405 466 24,200 1,050 Climbing Cleveland Center
Wed 05:47:45 PM 40.3839 -80.7575 166° South 415 478 25,200 950 Climbing Cleveland Center
Wed 05:48:45 PM 40.2692 -80.7272 169° South 415 478 26,100 900 Climbing Cleveland Center
Wed 05:49:45 PM 40.1547 -80.6972 169° South 420 483 27,000 450 Climbing Cleveland Center
Wed 05:50:45 PM 40.0339 -80.6644 168° South 433 498 27,000  Level Cleveland Center
Wed 05:51:45 PM 39.9169 -80.6292 167° South 433 498 27,000  Level Cleveland Center
Wed 05:52:45 PM 39.8044 -80.5911 165° South 428 493 27,000  Level Cleveland Center
Wed 05:53:45 PM 39.7294 -80.4858 133° Southeast 389 448 27,000  Level Cleveland Center
Wed 05:54:45 PM 39.6958 -80.3483 108° East 371 427 27,000  Level Cleveland Center
Wed 05:55:45 PM 39.6642 -80.2083 106° East 383 441 27,000  Level Cleveland Center
Wed 05:56:54 PM 39.6214 -80.0314 107° East 407 468 27,000  Level Washington Center
Wed 05:57:54 PM 39.5872 -79.8867 107° East 413 475 27,000  Level Washington Center
Wed 05:58:55 PM 39.5544 -79.7475 107° East 413 475 27,000  Level Washington Center
Wed 05:59:53 PM 39.5178 -79.6053 108° East 413 475 27,000  Level Washington Center
Wed 06:00:54 PM 39.4869 -79.4611 105° East 413 475 27,000 -197 Level Washington Center
Wed 06:01:55 PM 39.4639 -79.3308 103° East 413 475 26,600 -893 Descending Washington Center
Wed 06:02:55 PM 39.4356 -79.1736 103° East 413 475 25,200 -1,831 Descending Washington Center
Wed 06:03:53 PM 39.4083 -79.0325 104° East 408 470 23,000 -2,136 Descending Washington Center
Wed 06:04:53 PM 39.3850 -78.8997 103° East 391 450 21,000 -1,785 Descending Washington Center
Wed 06:05:54 PM 39.3647 -78.7969 104° East 384 442 19,400 -1,934 Descending Washington Center
Wed 06:06:54 PM 39.3375 -78.6428 103° East 377 434 17,100 -2,132 Descending Washington Center
Wed 06:07:55 PM 39.3156 -78.5183 103° East 366 421 15,100 -1,884 Descending Washington Center
Wed 06:08:55 PM 39.2933 -78.3967 103° East 353 406 13,300 -1,800 Descending Washington Center
Wed 06:09:55 PM 39.2564 -78.2908 114° Southeast 340 391 11,500 -1,729 Descending Washington Center
Wed 06:10:53 PM 39.2397 -78.1883 102° East 313 360 9,900 -1,714 Descending Washington Center
Wed 06:11:54 PM 39.2272 -78.0914 99° East 284 327 8,100 -1,463 Descending Washington Center
Wed 06:12:56 PM 39.2372 -78.0114 81° East 269 310 6,900 -1,361 Descending Washington Center
Wed 06:13:53 PM 39.2492 -77.9261 80° East 242 278 5,400 -966 Descending Washington Center
Wed 06:14:54 PM 39.2636 -77.8381 78° East 242 278 5,000 -397 Descending Washington Center
Wed 06:15:54 PM 39.2567 -77.7519 96° East 237 273 4,600 -504 Descending Washington Center
Wed 06:16:53 PM 39.2456 -77.6686 100° East 232 267 4,000 -606 Descending Washington Center
Wed 06:17:43 PM 39.2333 -77.5833 100° East 244 281 3,500 -491 Descending Potomac TRACON
Wed 06:18:43 PM 39.2333 -77.5000 90° East 231 266 3,100 -209 Descending Potomac TRACON
Wed 06:19:38 PM 39.1833 -77.4667 153° Southeast 187 215 3,100 -99 Level Potomac TRACON
Wed 06:20:44 PM 39.1333 -77.4667 180° South 180 207 2,900 -182 Descending Potomac TRACON

Login

Don't have an account? Register now (free) for customized features, flight alerts, and more!